Hundvaag 1 weather for Oct 1999
Month no. 148
Obs.
Da.
Temp. Dew Point Precip. Wind
Speed
Wind gusts Cloud cover Press. Humidity Wind dir. Sunny OPT
01.10.1999 10,8   20,0     0       1  
02.10.1999 8,2   28,0     2       1  
03.10.1999 9,0   13,0     1       1  
04.10.1999 8,7   29,0     0          
05.10.1999 9,3   0,0     10          
06.10.1999 8,2   0,0     10       1  
07.10.1999 8,4   0,0     3       1  
08.10.1999 9,2   11,0     0       1  
09.10.1999 7,3   6,0     5       1  
10.10.1999 6,7   6,0     0       1  
11.10.1999 9,5   11,0     0       1  
12.10.1999 9,7   13,0     4          
13.10.1999 10,2   6,0     0          
14.10.1999 10,4   27,0     0          
15.10.1999 7,2   0,0     10          
16.10.1999 4,8   0,0     8       1  
17.10.1999 8,7   0,0     3       1  
18.10.1999 4,1   0,0     8       1  
19.10.1999 4,7   0,0     10       1  
20.10.1999 4,1   0,0     10       1  
21.10.1999 5,3   0,0     10       1  
22.10.1999 7,2   0,0     0       1  
23.10.1999 9,6   7,0     0       1  
24.10.1999 11,5   0,0     1       1  
25.10.1999 12,4   0,0     0       1  
26.10.1999 10,8   10,0     0          
27.10.1999 7,6   1,0     0       1  
28.10.1999 11,2   12,0     0          
29.10.1999 8,4   8,0     3          
30.10.1999 11,4   0,0     1       1  
31.10.1999 10,8   12,0     0          
Avrg/Sum 8,6   220,0     3,2       21